Pika — WD16893 — position and weather

sailwx.info

Track history (hours):
 
Tides and Currents Weather Stations Pressure Air Temp Water Temp Dewpoint Dewpoint Depression Visibility Wind Speed Wind Dir Waves Ship Positions

Pika

Last reported at 2017-Oct-17 06:07 UTC. Time now 2017-Oct-19 23:55 UTC.
Position N 26°15' W 079°49'.

Length 11 m.

Type: Sailing vessel. MMSI: 367723290.

Date/timePositionNaut miles runAvg speedWind from/ knotsBaromVisibWave heightAir tempDewpointWater temp
2017-Oct-17 06:07N 26°15' W 079°49'1 9.3
2017-Oct-17 05:58N 26°14' W 079°51'5 9.5
2017-Oct-17 05:27N 26°11' W 079°55'5 9.4
2017-Oct-17 04:57N 26°09' W 079°60'4 8.7
2017-Oct-17 04:27N 26°06' W 080°04'3 6.6
2017-Oct-17 04:00N 26°06' W 080°07'1 1.4
2017-Oct-17 03:12N 26°07' W 080°07'0 0.0
2017-Oct-17 02:57N 26°07' W 080°07'0 0.0
2017-Oct-17 02:27N 26°07' W 080°07'0 0.0
2017-Oct-17 02:00N 26°07' W 080°07'0 0.0
2017-Oct-17 01:30N 26°07' W 080°07'0 0.0
2017-Oct-17 01:00N 26°07' W 080°07'0 0.0
2017-Oct-17 00:30N 26°07' W 080°07'0 0.0
2017-Oct-17 00:00N 26°07' W 080°07'0 0.5
2017-Oct-16 23:27N 26°07' W 080°07'1 1.6
2017-Oct-16 22:57N 26°06' W 080°07'2 3.9
2017-Oct-16 22:26N 26°07' W 080°09'1 0.0
2017-Oct-15 20:08N 26°07' W 080°10'0 0.0
2017-Oct-15 19:56N 26°07' W 080°10'0 0.0
2017-Oct-15 19:26N 26°07' W 080°10'0 0.0
2017-Oct-15 18:56N 26°07' W 080°10'0 0.0
2017-Oct-15 18:26N 26°07' W 080°10'0 0.0
2017-Oct-15 16:30N 26°07' W 080°10'0 0.8
2017-Oct-15 15:56N 26°07' W 080°09'1 1.8
2017-Oct-15 15:25N 26°07' W 080°08'1 2.7
2017-Oct-15 14:52N 26°07' W 080°07'  
2017-Oct-12 16:57N 26°07' W 080°07'0 0.0
2017-Oct-12 16:30N 26°07' W 080°07'0 0.0
2017-Oct-12 16:00N 26°07' W 080°07'0 0.0
2017-Oct-12 15:30N 26°07' W 080°07'1 2.6
2017-Oct-12 15:01N 26°06' W 080°07'2 3.0
2017-Oct-12 14:27N 26°06' W 080°05'2 2.5
2017-Oct-12 13:42N 26°07' W 080°07'1 5.5
2017-Oct-12 13:30N 26°07' W 080°08'1 2.1
2017-Oct-12 13:00N 26°07' W 080°09'  
Track history (hours):
 
Tides and Currents Weather Stations Pressure Air Temp Water Temp Dewpoint Dewpoint Depression Visibility Wind Speed Wind Dir Waves Ship Positions

Pika

Last reported at 2017-Oct-17 06:07 UTC. Time now 2017-Oct-19 23:55 UTC.
Position N 26°15' W 079°49'.

Length 11 m.

Type: Sailing vessel. MMSI: 367723290.

Date/timePositionNaut miles runAvg speedWind from/ knotsBaromVisibWave heightAir tempDewpointWater temp
2017-Oct-17 06:07N 26°15' W 079°49'1 9.3
2017-Oct-17 05:58N 26°14' W 079°51'5 9.5
2017-Oct-17 05:27N 26°11' W 079°55'5 9.4
2017-Oct-17 04:57N 26°09' W 079°60'4 8.7
2017-Oct-17 04:27N 26°06' W 080°04'3 6.6
2017-Oct-17 04:00N 26°06' W 080°07'1 1.4
2017-Oct-17 03:12N 26°07' W 080°07'0 0.0
2017-Oct-17 02:57N 26°07' W 080°07'0 0.0
2017-Oct-17 02:27N 26°07' W 080°07'0 0.0
2017-Oct-17 02:00N 26°07' W 080°07'0 0.0
2017-Oct-17 01:30N 26°07' W 080°07'0 0.0
2017-Oct-17 01:00N 26°07' W 080°07'0 0.0
2017-Oct-17 00:30N 26°07' W 080°07'0 0.0
2017-Oct-17 00:00N 26°07' W 080°07'0 0.5
2017-Oct-16 23:27N 26°07' W 080°07'1 1.6
2017-Oct-16 22:57N 26°06' W 080°07'2 3.9
2017-Oct-16 22:26N 26°07' W 080°09'1 0.0
2017-Oct-15 20:08N 26°07' W 080°10'0 0.0
2017-Oct-15 19:56N 26°07' W 080°10'0 0.0
2017-Oct-15 19:26N 26°07' W 080°10'0 0.0
2017-Oct-15 18:56N 26°07' W 080°10'0 0.0
2017-Oct-15 18:26N 26°07' W 080°10'0 0.0
2017-Oct-15 16:30N 26°07' W 080°10'0 0.8
2017-Oct-15 15:56N 26°07' W 080°09'1 1.8
2017-Oct-15 15:25N 26°07' W 080°08'1 2.7
2017-Oct-15 14:52N 26°07' W 080°07'  
2017-Oct-12 16:57N 26°07' W 080°07'0 0.0
2017-Oct-12 16:30N 26°07' W 080°07'0 0.0
2017-Oct-12 16:00N 26°07' W 080°07'0 0.0
2017-Oct-12 15:30N 26°07' W 080°07'1 2.6
2017-Oct-12 15:01N 26°06' W 080°07'2 3.0
2017-Oct-12 14:27N 26°06' W 080°05'2 2.5
2017-Oct-12 13:42N 26°07' W 080°07'1 5.5
2017-Oct-12 13:30N 26°07' W 080°08'1 2.1
2017-Oct-12 13:00N 26°07' W 080°09'  

Dump ship's entire track history